createdAt,value
2022-07-28T00:04:31.604Z,23.88
2022-07-28T00:09:34.343Z,23.55
2022-07-28T00:14:38.624Z,23.82
2022-07-28T00:19:41.348Z,23.70
2022-07-28T00:24:44.071Z,23.44
2022-07-28T00:29:51.020Z,23.69
2022-07-28T00:34:54.280Z,23.49
2022-07-28T00:39:57.186Z,23.61
2022-07-28T00:45:01.325Z,23.47
2022-07-28T00:50:04.147Z,23.48
2022-07-28T00:55:07.865Z,23.24
2022-07-28T01:00:13.290Z,23.09
2022-07-28T01:05:16.113Z,23.22
2022-07-28T01:10:22.479Z,23.21
2022-07-28T01:15:31.042Z,23.16
2022-07-28T01:20:36.835Z,23.15
2022-07-28T01:25:48.545Z,23.02
2022-07-28T01:30:54.555Z,22.67
2022-07-28T01:36:04.694Z,22.78
2022-07-28T01:41:08.673Z,22.64
2022-07-28T01:46:13.064Z,22.48
2022-07-28T01:51:15.871Z,22.45
2022-07-28T01:56:19.292Z,22.27
2022-07-28T02:01:23.569Z,22.49
2022-07-28T02:06:26.427Z,22.40
2022-07-28T02:11:41.549Z,22.25
2022-07-28T02:16:48.452Z,22.01
2022-07-28T02:21:51.324Z,21.80
2022-07-28T02:26:57.102Z,22.14
2022-07-28T02:32:03.214Z,22.02
2022-07-28T02:37:06.739Z,21.48
2022-07-28T02:42:18.593Z,21.68
2022-07-28T02:47:24.936Z,21.62
2022-07-28T02:52:27.825Z,21.57
2022-07-28T02:57:30.784Z,21.69
2022-07-28T03:02:36.721Z,21.80
2022-07-28T03:07:42.465Z,22.06
2022-07-28T03:12:55.141Z,21.78
2022-07-28T03:18:00.078Z,21.47
2022-07-28T03:23:03.164Z,21.22
2022-07-28T03:28:06.080Z,21.07
2022-07-28T03:33:10.127Z,21.10
2022-07-28T03:38:14.473Z,20.64
2022-07-28T03:43:22.372Z,20.78
2022-07-28T03:48:30.833Z,20.62
2022-07-28T03:53:33.642Z,20.81
2022-07-28T03:58:36.620Z,20.45
2022-07-28T04:03:43.907Z,20.41
2022-07-28T04:08:47.140Z,19.98
2022-07-28T04:13:50.025Z,19.78
2022-07-28T04:18:54.180Z,19.96
2022-07-28T04:24:01.642Z,20.68
2022-07-28T04:29:04.980Z,20.73
2022-07-28T04:34:09.852Z,20.71
2022-07-28T04:39:12.639Z,21.24
2022-07-28T04:44:17.289Z,20.78
2022-07-28T04:49:21.760Z,21.14
2022-07-28T04:54:26.811Z,21.29
2022-07-28T04:59:29.718Z,21.01
2022-07-28T05:04:36.020Z,20.45
2022-07-28T05:09:38.819Z,20.05
2022-07-28T05:14:42.086Z,20.13
2022-07-28T05:19:46.205Z,21.12
2022-07-28T05:24:48.972Z,21.06
2022-07-28T05:29:52.186Z,20.75
2022-07-28T05:34:56.332Z,20.54
2022-07-28T05:39:59.145Z,21.06
2022-07-28T05:50:06.602Z,22.19
2022-07-28T05:55:09.922Z,22.42
2022-07-28T06:00:14.510Z,22.54
2022-07-28T06:05:18.886Z,22.64
2022-07-28T06:10:22.609Z,22.70
2022-07-28T06:15:26.558Z,22.70
2022-07-28T06:20:31.224Z,22.74
2022-07-28T06:25:34.091Z,22.81
2022-07-28T06:30:37.034Z,22.87
2022-07-28T06:35:46.699Z,22.92
2022-07-28T06:40:54.288Z,22.99
2022-07-28T06:45:57.141Z,23.03
2022-07-28T06:51:01.389Z,23.03
2022-07-28T06:56:05.171Z,23.07
2022-07-28T07:01:09.083Z,23.12
2022-07-28T07:06:13.366Z,23.18
2022-07-28T07:11:16.174Z,23.26
2022-07-28T07:16:19.433Z,23.33
2022-07-28T07:21:23.870Z,23.38
2022-07-28T07:26:29.057Z,23.45
2022-07-28T07:31:33.127Z,23.54
2022-07-28T07:36:37.275Z,23.58
2022-07-28T07:41:40.188Z,23.61
2022-07-28T07:46:43.068Z,23.71
2022-07-28T07:51:47.359Z,23.72
2022-07-28T07:56:50.261Z,23.78
2022-07-28T08:01:55.083Z,23.76
2022-07-28T08:06:59.503Z,23.72
2022-07-28T08:12:03.104Z,23.73
2022-07-28T08:17:05.883Z,23.79
2022-07-28T08:22:10.254Z,23.79
2022-07-28T08:27:13.290Z,23.81
2022-07-28T08:32:16.058Z,23.84
2022-07-28T08:37:20.452Z,23.86
2022-07-28T08:42:26.588Z,23.89
2022-07-28T08:47:40.582Z,24.00
2022-07-28T08:52:45.930Z,24.04
2022-07-28T08:57:48.705Z,24.01
2022-07-28T09:02:52.413Z,23.97
2022-07-28T09:07:56.777Z,23.99
2022-07-28T09:12:59.542Z,23.99
2022-07-28T09:18:02.749Z,24.06
2022-07-28T09:23:41.938Z,24.02
2022-07-28T09:28:30.326Z,24.05
2022-07-28T09:33:42.270Z,23.89
2022-07-28T09:38:48.216Z,24.04
2022-07-28T09:43:54.986Z,23.97
2022-07-28T09:48:59.611Z,24.07
2022-07-28T09:54:11.955Z,24.07
2022-07-28T09:59:16.196Z,24.19
2022-07-28T10:04:31.226Z,24.17
2022-07-28T10:09:35.357Z,24.23
2022-07-28T10:14:38.274Z,24.32
2022-07-28T10:19:41.311Z,24.33
2022-07-28T10:24:45.474Z,24.27
2022-07-28T10:29:48.246Z,24.32
2022-07-28T10:34:52.465Z,24.26
2022-07-28T10:40:10.080Z,24.21
2022-07-28T10:45:13.609Z,24.33
2022-07-28T10:50:16.563Z,24.48
2022-07-28T10:55:24.194Z,24.32
2022-07-28T11:00:27.103Z,24.31
2022-07-28T11:05:34.943Z,24.44
2022-07-28T11:10:49.181Z,24.50
2022-07-28T11:15:52.689Z,24.42
2022-07-28T11:21:10.299Z,24.28
2022-07-28T11:26:34.446Z,24.29
2022-07-28T11:32:13.907Z,24.56
2022-07-28T11:37:16.697Z,24.43
2022-07-28T11:42:27.024Z,24.45
2022-07-28T11:47:31.697Z,24.69
2022-07-28T11:52:34.419Z,24.58
2022-07-28T11:57:41.765Z,24.75
2022-07-28T12:02:44.714Z,24.75
2022-07-28T12:07:48.870Z,24.84
2022-07-28T12:12:53.554Z,24.72
2022-07-28T12:17:56.604Z,24.53
2022-07-28T12:23:00.909Z,24.69
2022-07-28T12:28:16.340Z,24.59
2022-07-28T12:33:26.080Z,24.74
2022-07-28T12:38:31.831Z,24.74
2022-07-28T12:43:35.911Z,24.62
2022-07-28T12:48:41.285Z,24.56
2022-07-28T12:53:51.630Z,24.67
2022-07-28T12:59:06.543Z,24.76
2022-07-28T13:04:09.284Z,24.78
2022-07-28T13:09:22.292Z,24.87
2022-07-28T13:14:43.599Z,24.98
2022-07-28T13:19:47.286Z,25.02
2022-07-28T13:24:50.455Z,24.99
2022-07-28T13:29:54.761Z,25.10
2022-07-28T13:34:57.834Z,25.05
2022-07-28T13:40:01.674Z,25.16
2022-07-28T13:45:06.505Z,25.13
2022-07-28T13:50:10.029Z,25.26
2022-07-28T13:55:16.008Z,25.20
2022-07-28T14:00:22.891Z,25.19
2022-07-28T14:05:32.177Z,25.39
2022-07-28T14:10:35.675Z,25.43
2022-07-28T14:15:40.274Z,25.47
2022-07-28T14:20:43.024Z,25.45
2022-07-28T14:25:49.421Z,25.37
2022-07-28T14:30:54.913Z,25.55
2022-07-28T14:35:57.761Z,25.50
2022-07-28T14:41:00.510Z,25.56
2022-07-28T14:46:16.164Z,25.54
2022-07-28T14:51:19.595Z,25.52
2022-07-28T14:56:22.636Z,25.60
2022-07-28T15:01:26.975Z,25.66
2022-07-28T15:06:29.892Z,25.55
2022-07-28T15:11:32.773Z,25.57
2022-07-28T15:16:38.256Z,25.66
2022-07-28T15:21:46.621Z,25.61
2022-07-28T15:26:49.757Z,25.75
2022-07-28T15:31:54.026Z,25.76
2022-07-28T15:36:56.983Z,25.67
2022-07-28T15:41:59.967Z,25.60
2022-07-28T15:47:04.145Z,25.64
2022-07-28T15:52:07.291Z,25.93
2022-07-28T15:57:10.119Z,26.01
2022-07-28T16:02:17.481Z,25.92
2022-07-28T16:07:28.444Z,26.12
2022-07-28T16:12:31.164Z,26.07
2022-07-28T16:17:35.830Z,26.26
2022-07-28T16:22:40.612Z,26.16
2022-07-28T16:27:43.437Z,26.35
2022-07-28T16:32:47.653Z,26.41
2022-07-28T16:37:50.506Z,26.25
2022-07-28T16:42:54.021Z,26.39
2022-07-28T16:47:58.748Z,26.41
2022-07-28T16:53:04.189Z,26.32
2022-07-28T16:58:06.963Z,26.21
2022-07-28T17:03:11.350Z,26.25
2022-07-28T17:08:14.345Z,26.26
2022-07-28T17:13:18.678Z,26.19
2022-07-28T17:18:23.076Z,26.15
2022-07-28T17:23:25.809Z,26.20
2022-07-28T17:28:28.605Z,27.35
2022-07-28T17:33:32.753Z,27.94
2022-07-28T17:38:35.555Z,27.97
2022-07-28T17:43:43.669Z,27.17
2022-07-28T17:48:49.599Z,26.99
2022-07-28T17:53:52.386Z,26.78
2022-07-28T17:58:57.668Z,26.71
2022-07-28T18:04:01.757Z,26.51
2022-07-28T18:09:07.085Z,26.51
2022-07-28T18:14:10.640Z,26.60
2022-07-28T18:19:14.927Z,26.52
2022-07-28T18:24:18.344Z,26.66
2022-07-28T18:29:22.282Z,26.65
2022-07-28T18:34:26.458Z,26.61
2022-07-28T18:39:30.620Z,26.64
2022-07-28T18:44:33.621Z,26.69
2022-07-28T18:49:38.181Z,26.55
2022-07-28T18:54:41.060Z,26.42
2022-07-28T18:59:47.694Z,26.25
2022-07-28T19:04:54.366Z,26.17
2022-07-28T19:09:57.322Z,26.06
2022-07-28T19:15:00.059Z,26.03
2022-07-28T19:20:06.291Z,26.02
2022-07-28T19:25:09.912Z,25.94
2022-07-28T19:30:13.180Z,25.89
2022-07-28T19:35:17.366Z,25.96
2022-07-28T19:40:20.279Z,25.95
2022-07-28T19:45:23.172Z,26.02
2022-07-28T19:50:27.551Z,26.03
2022-07-28T19:55:32.252Z,25.98
2022-07-28T20:00:35.039Z,26.02
2022-07-28T20:05:40.121Z,26.07
2022-07-28T20:10:43.055Z,26.11
2022-07-28T20:15:45.861Z,26.16
2022-07-28T20:20:50.038Z,26.11
2022-07-28T20:25:52.872Z,26.13
2022-07-28T20:30:55.690Z,26.12
2022-07-28T20:35:59.919Z,26.19
2022-07-28T20:41:02.729Z,26.15
2022-07-28T20:46:09.638Z,26.15
2022-07-28T20:51:13.845Z,26.11
2022-07-28T20:56:16.587Z,26.02
2022-07-28T21:01:23.160Z,25.97
2022-07-28T21:06:27.896Z,25.99
2022-07-28T21:11:35.138Z,26.07
2022-07-28T21:16:38.417Z,26.09
2022-07-28T21:21:42.554Z,26.06
2022-07-28T21:26:45.297Z,26.20
2022-07-28T21:32:03.815Z,26.34
2022-07-28T21:37:11.480Z,26.41
2022-07-28T21:42:14.711Z,26.39
2022-07-28T21:47:17.459Z,26.35
2022-07-28T21:52:21.967Z,26.36
2022-07-28T21:57:25.210Z,26.35
2022-07-28T22:02:28.194Z,26.35
2022-07-28T22:07:33.247Z,26.37
2022-07-28T22:12:36.017Z,26.36
2022-07-28T22:17:38.788Z,26.36
2022-07-28T22:22:42.879Z,26.37
2022-07-28T22:27:45.559Z,26.37
2022-07-28T22:32:48.335Z,26.37
2022-07-28T22:37:52.430Z,26.38
2022-07-28T22:42:55.201Z,26.36
2022-07-28T22:47:57.947Z,26.36
2022-07-28T22:53:02.018Z,26.34
2022-07-28T22:58:05.714Z,26.30
2022-07-28T23:03:11.762Z,26.25
2022-07-28T23:08:17.583Z,26.21
2022-07-28T23:13:20.470Z,26.19
2022-07-28T23:18:23.277Z,26.17
2022-07-28T23:23:27.601Z,26.12
2022-07-28T23:28:30.375Z,26.08
2022-07-28T23:33:54.493Z,26.05
2022-07-28T23:38:57.396Z,26.02
2022-07-28T23:44:00.180Z,25.98
2022-07-28T23:49:03.444Z,25.95
2022-07-28T23:54:07.559Z,25.92
2022-07-28T23:59:13.663Z,25.90
